createdAt,value
2023-04-27T00:00:53.920Z,1.80
2023-04-27T00:05:56.286Z,1.63
2023-04-27T00:10:58.404Z,1.93
2023-04-27T00:16:03.669Z,2.30
2023-04-27T00:21:06.125Z,1.60
2023-04-27T00:26:08.087Z,2.03
2023-04-27T00:31:10.142Z,1.90
2023-04-27T00:36:12.284Z,2.03
2023-04-27T00:41:16.415Z,1.73
2023-04-27T00:46:19.799Z,2.00
2023-04-27T00:51:22.220Z,1.93
2023-04-27T00:56:24.356Z,2.00
2023-04-27T01:01:26.904Z,2.17
2023-04-27T01:06:29.780Z,2.10
2023-04-27T01:11:33.034Z,2.60
2023-04-27T01:16:35.483Z,2.27
2023-04-27T01:21:37.618Z,2.23
2023-04-27T01:26:39.596Z,2.00
2023-04-27T01:31:41.555Z,2.00
2023-04-27T01:36:43.577Z,2.63
2023-04-27T01:41:45.636Z,1.90
2023-04-27T01:46:47.572Z,2.33
2023-04-27T01:51:49.637Z,1.93
2023-04-27T01:56:51.595Z,2.37
2023-04-27T02:01:53.890Z,2.13
2023-04-27T02:06:55.765Z,2.07
2023-04-27T02:11:57.640Z,2.50
2023-04-27T02:17:00.946Z,2.20
2023-04-27T02:22:03.512Z,2.63
2023-04-27T02:27:05.702Z,1.87
2023-04-27T02:32:07.684Z,2.47
2023-04-27T02:37:09.592Z,2.33
2023-04-27T02:42:11.485Z,2.80
2023-04-27T02:47:13.933Z,2.83
2023-04-27T02:52:17.427Z,2.90
2023-04-27T02:57:19.332Z,2.30
2023-04-27T03:02:21.548Z,2.50
2023-04-27T03:07:23.506Z,2.30
2023-04-27T03:12:25.353Z,2.57
2023-04-27T03:17:27.652Z,2.60
2023-04-27T03:22:29.524Z,2.00
2023-04-27T03:27:31.532Z,2.53
2023-04-27T03:32:33.490Z,2.60
2023-04-27T03:37:36.370Z,1.90
2023-04-27T03:42:38.245Z,2.43
2023-04-27T03:47:40.251Z,2.10
2023-04-27T03:52:42.226Z,2.33
2023-04-27T03:57:45.754Z,2.33
2023-04-27T04:02:47.880Z,2.60
2023-04-27T04:07:49.909Z,3.17
2023-04-27T04:12:52.668Z,2.30
2023-04-27T04:17:54.679Z,2.30
2023-04-27T04:22:56.577Z,2.50
2023-04-27T04:27:58.461Z,3.37
2023-04-27T04:33:00.572Z,1.80
2023-04-27T04:38:02.600Z,2.40
2023-04-27T04:43:04.992Z,2.53
2023-04-27T04:48:07.033Z,2.10
2023-04-27T04:53:10.141Z,2.70
2023-04-27T04:58:12.380Z,2.60
2023-04-27T05:03:14.521Z,2.30
2023-04-27T05:08:17.332Z,2.07
2023-04-27T05:13:19.918Z,2.53
2023-04-27T05:18:21.977Z,2.20
2023-04-27T05:23:24.040Z,2.20
2023-04-27T05:28:26.254Z,2.37
2023-04-27T05:33:28.517Z,2.13
2023-04-27T05:38:30.737Z,2.50
2023-04-27T05:43:35.012Z,2.70
2023-04-27T05:48:37.456Z,2.20
2023-04-27T05:53:40.095Z,2.30
2023-04-27T05:58:42.746Z,2.23
2023-04-27T06:03:45.656Z,1.40
2023-04-27T06:08:49.003Z,2.30
2023-04-27T06:13:51.788Z,2.10
2023-04-27T06:18:54.177Z,2.17
2023-04-27T06:23:56.298Z,2.33
2023-04-27T06:28:58.432Z,2.53
2023-04-27T06:34:00.914Z,2.50
2023-04-27T06:39:02.804Z,2.50
2023-04-27T06:44:04.905Z,2.47
2023-04-27T06:49:06.954Z,2.87
2023-04-27T06:54:08.957Z,2.70
2023-04-27T06:59:11.364Z,3.07
2023-04-27T07:04:13.569Z,3.00
2023-04-27T07:09:26.621Z,2.93
2023-04-27T07:14:29.860Z,2.67
2023-04-27T07:19:32.081Z,2.80
2023-04-27T07:24:33.955Z,3.27
2023-04-27T07:29:37.768Z,2.53
2023-04-27T07:34:51.752Z,2.70
2023-04-27T07:39:55.099Z,2.77
2023-04-27T07:44:57.335Z,2.40
2023-04-27T07:49:59.842Z,3.23
2023-04-27T07:55:01.955Z,3.10
2023-04-27T08:00:07.132Z,2.93
2023-04-27T08:05:15.130Z,3.20
2023-04-27T08:10:17.217Z,3.13
2023-04-27T08:15:19.132Z,2.70
2023-04-27T08:20:21.054Z,3.40
2023-04-27T08:25:22.961Z,3.00
2023-04-27T08:30:24.851Z,3.00
2023-04-27T08:35:26.656Z,2.80
2023-04-27T08:40:28.602Z,3.27
2023-04-27T08:45:30.503Z,2.53
2023-04-27T08:50:32.548Z,2.73
2023-04-27T08:55:34.384Z,2.60
2023-04-27T09:00:43.511Z,3.23
2023-04-27T09:06:00.625Z,2.53
2023-04-27T09:11:06.268Z,2.80
2023-04-27T09:16:09.175Z,3.53
2023-04-27T09:21:11.154Z,3.13
2023-04-27T09:26:26.902Z,2.40
2023-04-27T09:31:35.900Z,3.10
2023-04-27T09:36:39.778Z,2.50
2023-04-27T09:41:42.179Z,3.33
2023-04-27T09:46:45.613Z,2.93
2023-04-27T09:51:47.531Z,3.03
2023-04-27T09:57:04.118Z,2.70
2023-04-27T10:02:20.875Z,2.70
2023-04-27T10:07:27.702Z,2.90
2023-04-27T10:12:36.794Z,2.63
2023-04-27T10:17:38.757Z,2.57
2023-04-27T10:22:41.529Z,2.40
2023-04-27T10:27:43.541Z,2.20
2023-04-27T10:32:51.984Z,2.47
2023-04-27T10:37:53.881Z,2.40
2023-04-27T10:42:56.930Z,2.50
2023-04-27T10:48:02.380Z,2.97
2023-04-27T10:53:07.193Z,2.87
2023-04-27T10:58:09.255Z,2.20
2023-04-27T11:03:15.651Z,1.93
2023-04-27T11:08:20.915Z,2.80
2023-04-27T11:13:24.431Z,2.00
2023-04-27T11:18:29.909Z,2.07
2023-04-27T11:23:38.776Z,2.07
2023-04-27T11:28:41.437Z,1.80
2023-04-27T11:33:52.329Z,1.70
2023-04-27T11:38:59.293Z,1.93
2023-04-27T11:44:12.353Z,1.67
2023-04-27T11:49:15.473Z,1.90
2023-04-27T11:54:17.693Z,1.47
2023-04-27T11:59:21.617Z,1.73
2023-04-27T12:04:24.079Z,1.60
2023-04-27T12:09:26.130Z,1.20
2023-04-27T12:14:28.266Z,1.80
2023-04-27T12:19:31.285Z,1.37
2023-04-27T12:24:36.332Z,1.50
2023-04-27T12:29:38.398Z,1.40
2023-04-27T12:34:40.655Z,1.70
2023-04-27T12:39:42.702Z,1.37
2023-04-27T12:44:47.584Z,1.60
2023-04-27T12:49:49.864Z,1.20
2023-04-27T12:54:57.662Z,1.30
2023-04-27T13:00:01.811Z,1.10
2023-04-27T13:05:04.949Z,1.50
2023-04-27T13:10:08.030Z,1.03
2023-04-27T13:15:10.937Z,1.07
2023-04-27T13:20:13.166Z,1.20
2023-04-27T13:25:16.836Z,1.10
2023-04-27T13:30:18.871Z,1.17
2023-04-27T13:35:21.302Z,1.27
2023-04-27T13:40:23.445Z,1.50
2023-04-27T13:45:25.534Z,1.07
2023-04-27T13:50:27.687Z,1.10
2023-04-27T13:55:29.819Z,1.20
2023-04-27T14:00:34.525Z,1.20
2023-04-27T14:05:36.819Z,1.07
2023-04-27T14:10:39.449Z,1.10
2023-04-27T14:15:41.971Z,0.90
2023-04-27T14:20:44.989Z,1.00
2023-04-27T14:25:46.980Z,2.10
2023-04-27T14:30:48.927Z,1.10
2023-04-27T14:35:51.010Z,0.90
2023-04-27T14:40:53.238Z,1.10
2023-04-27T14:46:02.070Z,1.23
2023-04-27T14:51:11.259Z,1.10
2023-04-27T14:56:13.358Z,1.00
2023-04-27T15:01:15.514Z,1.40
2023-04-27T15:06:17.633Z,1.43
2023-04-27T15:11:19.807Z,1.10
2023-04-27T15:16:21.829Z,1.00
2023-04-27T15:21:24.074Z,0.90
2023-04-27T15:26:27.232Z,0.93
2023-04-27T15:31:29.390Z,0.90
2023-04-27T15:36:31.631Z,0.90
2023-04-27T15:41:34.287Z,1.00
2023-04-27T15:46:36.575Z,0.90
2023-04-27T15:51:39.038Z,2.03
2023-04-27T15:56:41.317Z,1.10
2023-04-27T16:01:46.207Z,1.00
2023-04-27T16:06:48.534Z,1.10
2023-04-27T16:11:50.650Z,0.93
2023-04-27T16:16:52.830Z,1.07
2023-04-27T16:21:55.312Z,1.10
2023-04-27T16:26:57.707Z,0.97
2023-04-27T16:32:02.420Z,1.10
2023-04-27T16:37:04.820Z,1.10
2023-04-27T16:42:07.200Z,0.90
2023-04-27T16:47:09.284Z,1.20
2023-04-27T16:52:11.848Z,1.30
2023-04-27T17:02:42.062Z,1.20
2023-04-27T17:07:45.843Z,1.20
2023-04-27T17:12:47.908Z,1.10
2023-04-27T17:17:50.155Z,0.93
2023-04-27T17:22:52.343Z,1.10
2023-04-27T17:27:54.270Z,1.20
2023-04-27T17:33:03.766Z,0.90
2023-04-27T17:38:05.782Z,0.90
2023-04-27T17:43:08.988Z,1.30
2023-04-27T17:48:10.890Z,1.53
2023-04-27T17:53:15.308Z,0.90
2023-04-27T17:58:17.265Z,1.03
2023-04-27T18:03:27.215Z,1.03
2023-04-27T18:08:29.294Z,3.00
2023-04-27T18:13:33.953Z,1.17
2023-04-27T18:18:37.701Z,2.83
2023-04-27T18:23:42.988Z,1.33
2023-04-27T18:28:48.133Z,0.93
2023-04-27T18:34:00.750Z,1.30
2023-04-27T18:39:03.303Z,1.50
2023-04-27T18:44:06.323Z,1.20
2023-04-27T18:49:08.276Z,3.47
2023-04-27T18:54:10.128Z,2.03
2023-04-27T18:59:14.590Z,1.93
2023-04-27T19:04:16.998Z,3.53
2023-04-27T19:09:19.373Z,3.20
2023-04-27T19:14:23.240Z,2.27
2023-04-27T19:19:26.572Z,2.20
2023-04-27T19:24:28.657Z,2.10
2023-04-27T19:29:30.447Z,2.13
2023-04-27T19:34:32.248Z,2.00
2023-04-27T19:39:34.600Z,1.70
2023-04-27T19:44:36.500Z,1.70
2023-04-27T19:49:38.703Z,1.90
2023-04-27T19:54:41.012Z,1.83
2023-04-27T19:59:42.845Z,1.43
2023-04-27T20:04:44.993Z,2.07
2023-04-27T20:09:47.136Z,2.10
2023-04-27T20:14:49.042Z,1.40
2023-04-27T20:19:50.891Z,3.87
2023-04-27T20:24:53.350Z,2.27
2023-04-27T20:29:55.217Z,2.73
2023-04-27T20:34:57.214Z,3.03
2023-04-27T20:40:02.206Z,3.40
2023-04-27T20:45:06.100Z,2.60
2023-04-27T20:50:08.128Z,1.30
2023-04-27T20:55:10.253Z,1.30
2023-04-27T21:00:14.471Z,1.30
2023-04-27T21:05:16.306Z,1.50
2023-04-27T21:10:18.388Z,1.37
2023-04-27T21:15:20.504Z,1.43
2023-04-27T21:20:22.389Z,1.43
2023-04-27T21:25:24.602Z,1.47
2023-04-27T21:30:26.803Z,1.53
2023-04-27T21:35:28.962Z,1.67
2023-04-27T21:40:31.123Z,1.40
2023-04-27T21:45:33.176Z,1.37
2023-04-27T21:50:35.097Z,1.60
2023-04-27T21:55:36.944Z,1.30
2023-04-27T22:00:38.867Z,1.57
2023-04-27T22:05:40.798Z,1.60
2023-04-27T22:10:43.289Z,1.47
2023-04-27T22:15:46.157Z,1.80
2023-04-27T22:20:48.352Z,1.33
2023-04-27T22:25:50.911Z,1.30
2023-04-27T22:30:52.949Z,1.20
2023-04-27T22:35:54.822Z,1.40
2023-04-27T22:40:56.756Z,1.30
2023-04-27T22:46:00.666Z,1.60
2023-04-27T22:51:07.643Z,1.40
2023-04-27T22:56:09.848Z,1.80
2023-04-27T23:01:11.768Z,1.57
2023-04-27T23:06:14.339Z,1.70
2023-04-27T23:11:18.997Z,1.33
2023-04-27T23:16:21.827Z,1.60
2023-04-27T23:21:25.240Z,1.53
2023-04-27T23:26:27.308Z,1.53
2023-04-27T23:31:29.246Z,1.80
2023-04-27T23:36:31.202Z,1.60
2023-04-27T23:41:33.173Z,1.63
2023-04-27T23:46:35.399Z,1.70
2023-04-27T23:51:37.546Z,1.53
2023-04-27T23:56:39.442Z,1.50
